Date,TemperatureHighF,TemperatureAvgF,TemperatureLowF,DewpointHighF,DewpointAvgF,DewpointLowF,HumidityHigh,HumidityAvg,HumidityLow,PressureMaxIn,PressureMinIn,WindSpeedMaxMPH,WindSpeedAvgMPH,GustSpeedMaxMPH,PrecipitationSumIn
2013-1-1,36.7,31.4,19.0,27.0,16.9,3.6,73,55,41,29.90,29.67,37,7,37,0.00
2013-1-2,29.5,19.7,9.4,14.6,7.2,-5.2,67,58,48,30.08,29.86,26,6,26,0.00
2013-1-3,24.6,14.7,5.4,9.9,-1.3,-6.1,65,49,28,30.10,29.96,21,5,21,0.00
2013-1-4,37.9,30.4,19.8,24.1,20.0,9.9,77,65,52,29.96,29.77,23,4,23,0.00
2013-1-5,41.6,33.9,25.1,25.4,20.3,15.9,74,58,37,30.24,29.81,26,4,26,0.01
2013-1-6,43.1,34.1,25.3,30.2,25.2,17.5,89,70,53,30.20,29.91,18,2,18,0.00
2013-1-7,38.0,33.1,27.3,28.9,26.5,23.6,89,77,58,30.38,29.92,18,3,18,0.00
2013-1-8,46.3,38.1,31.5,28.8,27.9,26.9,88,68,48,30.35,30.22,23,4,23,0.00
2013-1-9,44.7,37.1,27.9,35.3,29.2,24.1,86,73,51,30.38,29.95,26,3,26,0.00
2013-1-10,46.2,41.4,33.9,28.3,24.8,22.7,66,52,42,30.51,29.98,36,8,36,0.00
2013-1-11,41.2,35.8,27.8,37.1,29.1,22.7,92,77,64,30.50,30.22,17,2,17,0.09
2013-1-12,45.2,42.2,39.1,41.6,40.0,37.0,96,92,86,30.22,30.10,13,2,13,0.01
2013-1-13,51.8,46.5,42.6,48.9,44.9,41.1,96,94,89,30.13,29.96,15,2,15,0.01
2013-1-14,62.5,52.6,41.5,51.9,42.3,26.2,93,71,41,30.22,29.81,24,5,24,0.00
2013-1-15,42.1,38.5,33.7,27.4,25.6,23.1,67,60,54,30.29,30.18,12,2,12,0.00
2013-1-16,34.1,32.4,29.9,31.6,28.9,22.7,94,87,63,30.22,29.79,13,2,13,0.17
2013-1-17,41.6,34.6,28.9,32.6,26.7,10.9,94,74,46,30.07,29.80,21,4,21,0.27
2013-1-18,29.0,22.1,16.6,12.1,0.2,-6.7,49,38,27,30.42,30.04,20,6,26,0.00
2013-1-19,48.9,38.4,23.4,32.5,22.4,6.5,73,53,37,30.37,29.85,25,6,25,0.00
2013-1-20,53.7,42.1,28.9,33.8,25.4,9.9,71,53,29,29.88,29.49,40,9,40,0.00
2013-1-21,29.2,25.3,21.4,20.0,8.7,0.5,87,51,35,30.07,29.76,31,5,31,0.00
2013-1-22,26.1,20.8,13.6,21.8,9.0,-1.5,95,62,35,30.05,29.72,29,6,29,0.00
2013-1-23,15.4,11.0,6.4,2.6,-9.1,-15.8,62,40,25,30.11,30.03,30,6,30,0.00
2013-1-24,18.1,10.4,2.4,-9.2,-12.3,-14.4,51,35,24,30.17,30.01,36,9,36,0.00
2013-1-25,23.6,16.4,8.7,8.7,-8.0,-11.6,66,34,21,30.25,30.05,25,6,25,0.00
2013-1-26,24.0,17.5,11.8,11.8,2.3,-10.4,89,54,27,30.19,29.98,28,6,28,0.00
2013-1-27,29.8,20.8,13.4,3.2,-0.6,-3.9,63,41,23,30.44,30.19,25,7,25,0.00
2013-1-28,30.1,24.5,18.1,27.4,10.8,-3.9,92,59,32,30.43,30.00,16,1,16,0.00
2013-1-29,34.2,30.2,25.2,32.1,27.0,22.7,92,88,81,30.17,30.00,9,2,9,0.10
2013-1-30,60.9,48.7,34.3,56.4,46.2,32.2,95,91,83,30.14,29.44,25,6,25,0.19
2013-1-31,60.8,47.6,30.6,58.1,36.8,15.8,94,68,35,29.55,28.94,35,13,48,0.34
2013-2-1,33.1,28.7,22.8,17.7,8.5,3.6,60,43,30,30.04,29.55,33,8,33,0.00
2013-2-2,29.1,24.4,17.8,11.7,6.6,2.5,58,46,34,30.22,30.03,18,4,18,0.00
2013-2-3,27.4,24.8,22.1,20.8,18.8,11.2,87,78,51,30.03,29.69,16,4,16,0.00
2013-2-4,30.1,25.1,20.8,20.1,10.5,4.2,84,56,35,29.91,29.68,35,9,35,0.00
2013-2-5,28.6,25.0,21.0,24.2,12.3,5.6,89,59,45,30.01,29.91,15,3,16,0.00
2013-2-6,38.2,30.1,24.9,27.0,19.7,7.3,91,68,39,30.27,29.90,19,4,28,0.06
2013-2-7,28.5,23.4,17.3,18.6,1.8,-5.3,67,40,24,30.50,30.26,22,4,22,0.00
2013-2-8,33.6,29.9,20.3,30.5,26.1,18.4,95,86,67,30.47,29.57,44,10,44,0.00
2013-2-9,20.7,17.6,14.7,18.8,14.7,7.7,92,88,73,30.14,29.52,44,10,44,0.00
2013-2-10,38.4,23.9,12.5,17.0,8.4,3.4,77,54,26,30.37,30.14,20,3,21,0.00
2013-2-11,42.5,33.2,19.4,41.2,29.1,11.7,95,85,64,30.33,29.57,20,2,20,0.31
2013-2-12,45.6,38.9,35.0,34.9,29.4,26.6,95,70,50,29.84,29.56,33,8,33,0.00
2013-2-13,44.1,37.1,30.3,28.7,26.1,23.3,80,65,47,29.83,29.67,19,3,19,0.00
2013-2-14,43.9,36.3,31.6,28.1,24.1,18.2,81,62,40,29.97,29.67,16,3,16,0.00
2013-2-15,49.1,39.6,32.1,36.3,31.7,24.2,89,74,53,29.98,29.88,20,4,20,0.00
2013-2-16,39.1,34.7,31.9,33.0,29.0,19.9,97,80,60,29.92,29.68,23,4,23,0.02
2013-2-17,32.1,22.5,17.0,20.8,11.4,1.8,89,64,42,29.68,29.31,41,12,41,0.00
2013-2-18,31.5,23.0,15.0,3.8,0.8,-4.6,58,39,23,30.12,29.61,41,11,41,0.00
2013-2-19,45.7,35.4,22.9,41.1,23.0,3.1,94,62,38,30.13,29.54,19,4,19,0.38
2013-2-20,42.0,33.3,26.8,40.4,21.5,11.2,94,63,41,29.74,29.49,34,9,34,0.01
2013-2-21,31.9,27.3,24.6,16.6,13.3,9.2,65,55,42,30.14,29.73,31,9,31,0.00
2013-2-22,38.0,31.9,23.9,26.4,21.4,16.1,79,65,47,30.37,30.14,19,4,19,0.00
2013-2-23,37.9,35.8,33.0,34.3,29.9,25.9,91,79,72,30.31,29.91,18,3,18,0.21
2013-2-24,38.4,34.4,30.1,36.8,32.7,28.6,94,93,91,29.91,29.66,24,5,24,0.51
2013-2-25,41.2,34.6,29.4,31.8,29.1,26.3,94,81,60,30.22,29.87,11,2,11,0.12
2013-2-26,42.1,36.3,29.3,34.6,30.3,27.0,93,79,66,30.32,30.15,19,3,19,0.00
2013-2-27,41.6,39.9,38.2,39.4,37.3,31.6,95,91,75,30.16,29.51,31,8,31,1.57
2013-2-28,47.7,39.3,34.1,39.1,34.9,32.6,95,85,64,29.62,29.50,9,2,13,0.00
2013-3-1,41.3,37.3,34.9,33.5,30.9,28.3,89,78,67,29.65,29.51,10,3,14,0.00
2013-3-2,44.2,37.6,31.2,31.4,28.2,26.0,81,69,57,29.65,29.59,12,4,12,0.00
2013-3-3,42.7,36.4,31.7,33.2,29.4,26.0,84,76,66,29.61,29.53,20,5,20,0.00
2013-3-4,39.2,34.2,30.7,28.6,24.5,21.9,87,68,53,29.69,29.53,31,9,31,0.00
2013-3-5,43.9,36.6,30.7,34.0,28.4,22.2,89,73,58,30.05,29.69,21,4,21,0.01
2013-3-6,40.2,37.6,35.3,35.6,32.7,28.4,91,83,69,30.10,30.02,32,9,32,0.14
2013-3-7,36.7,32.9,30.7,31.2,30.2,28.5,95,90,72,30.06,29.96,32,8,36,0.19
2013-3-8,42.3,34.2,29.3,35.8,28.2,22.9,97,81,50,30.11,29.90,34,9,34,0.09
2013-3-9,41.7,36.1,29.5,31.9,27.0,22.4,91,70,53,30.33,30.11,23,4,23,0.00
2013-3-10,39.2,34.2,27.4,32.6,29.7,25.1,92,84,72,30.39,30.30,14,3,14,0.00
2013-3-11,48.8,41.5,35.5,40.0,35.8,31.7,91,80,66,30.31,30.13,19,5,19,0.00
2013-3-12,52.1,45.8,41.5,50.9,43.8,39.2,96,93,89,30.15,29.71,19,5,19,0.21
2013-3-13,52.9,47.0,36.8,50.4,31.0,20.0,95,56,34,29.75,29.66,22,6,22,0.00
2013-3-14,36.7,32.5,23.0,24.6,16.1,6.3,69,51,39,29.80,29.66,30,8,30,0.00
2013-3-15,40.9,29.8,19.4,27.8,11.5,4.0,74,48,24,29.84,29.59,32,8,32,0.00
2013-3-16,39.4,33.7,28.3,26.9,14.8,6.2,72,47,27,29.86,29.63,26,4,26,0.00
2013-3-17,37.5,30.8,24.6,15.5,8.8,2.0,65,41,24,30.30,29.86,32,5,32,0.00
2013-3-18,33.4,27.4,18.2,26.6,11.3,-0.3,88,51,33,30.44,30.24,19,4,19,0.00
2013-3-19,35.4,32.4,26.9,34.0,30.9,24.8,95,94,89,30.24,29.56,28,10,28,0.67
2013-3-20,38.6,31.3,25.3,25.0,21.8,18.8,93,69,47,29.79,29.65,37,6,37,0.07
2013-3-21,34.6,30.9,27.7,29.1,22.7,17.5,92,72,52,29.79,29.58,11,2,11,0.00
2013-3-22,41.6,34.2,29.5,27.7,21.1,15.4,90,60,38,29.70,29.57,25,6,26,0.00
2013-3-23,44.1,35.9,28.1,23.1,19.7,16.1,74,53,34,29.73,29.58,34,9,34,0.00
2013-3-24,47.7,38.5,31.5,31.4,25.1,20.6,80,59,37,29.78,29.70,21,5,22,0.00
2013-3-25,42.0,37.2,31.7,35.0,30.8,25.2,84,77,69,29.75,29.51,23,4,23,0.00
2013-3-26,51.9,43.2,32.7,32.5,23.1,17.7,91,49,27,29.75,29.51,19,4,20,0.02
2013-3-27,54.9,43.2,32.5,33.7,25.3,21.9,77,51,29,29.84,29.70,24,6,24,0.00
2013-3-28,47.7,42.5,36.9,35.1,33.1,27.9,90,71,48,29.98,29.83,15,4,18,0.03
2013-3-29,58.2,45.6,36.8,38.7,33.2,28.5,78,63,35,30.01,29.93,21,4,22,0.01
2013-3-30,53.2,44.6,36.2,34.2,30.9,19.9,80,60,29,30.07,29.98,15,4,15,0.00
2013-3-31,56.7,43.4,30.5,38.5,30.9,25.2,85,64,32,30.10,29.74,25,4,28,0.01
2013-4-1,58.9,46.4,35.9,48.4,36.6,10.7,94,71,32,29.76,29.46,30,7,30,0.18
2013-4-2,39.7,34.8,30.0,15.4,12.1,6.7,51,39,26,29.90,29.75,36,9,36,0.00
2013-4-3,46.7,37.4,30.1,15.5,10.7,0.6,51,35,15,30.12,29.88,35,10,35,0.00
2013-4-4,55.2,41.6,29.6,28.0,17.1,7.4,57,39,15,30.26,30.02,21,6,22,0.00
2013-4-5,55.0,45.2,38.9,38.6,28.4,20.8,68,53,28,30.02,29.60,23,6,25,0.00
2013-4-6,46.0,38.0,31.2,24.0,9.2,-2.7,62,33,13,30.32,29.85,30,6,30,0.00
2013-4-7,51.0,42.4,29.8,40.3,30.2,20.2,87,63,31,30.32,29.98,31,6,34,0.00
2013-4-8,61.6,49.9,44.5,43.1,40.1,35.6,89,71,39,30.09,29.92,18,4,19,0.00
2013-4-9,71.0,50.7,43.6,50.4,43.2,39.3,92,78,40,30.08,29.82,23,4,24,0.05
2013-4-10,46.1,45.6,44.8,43.0,41.8,41.3,89,86,85,29.98,29.91,12,3,12,0.00
2013-4-11,50.4,44.7,42.3,43.6,36.4,28.8,95,73,52,30.13,29.82,18,3,18,0.08
2013-4-12,42.9,39.2,37.0,37.0,33.9,28.8,93,82,66,30.17,29.76,24,7,24,0.43
2013-4-13,51.9,40.3,35.2,39.4,36.2,33.4,94,86,59,29.91,29.73,20,4,20,0.05
2013-4-14,42.9,42.8,42.7,39.9,39.6,39.4,89,88,88,29.93,29.91,4,0,4,0.00
2013-4-15,50.0,44.7,34.0,39.7,36.9,29.7,85,74,51,30.38,30.18,18,6,18,0.00
2013-4-16,61.7,51.4,41.1,50.6,41.5,35.8,88,70,49,30.39,30.03,30,7,30,0.00
2013-4-17,65.7,57.4,47.3,52.2,37.6,27.5,82,51,24,30.31,30.02,23,5,23,0.00
2013-4-18,56.0,48.9,42.0,43.3,36.5,28.0,77,63,35,30.42,30.13,30,5,30,0.00
2013-4-19,73.2,61.6,48.4,61.5,55.7,43.3,95,82,61,30.13,29.64,36,8,36,0.00
2013-4-20,64.5,54.4,45.4,61.7,40.9,23.0,93,64,36,30.18,29.57,28,7,28,0.38
2013-4-21,52.2,42.3,34.8,31.8,24.1,18.1,73,49,29,30.66,30.18,25,5,25,0.00
2013-4-22,48.1,41.4,33.5,36.2,31.3,20.9,86,69,34,30.76,30.58,22,5,22,0.00
2013-4-23,42.4,41.1,39.0,40.7,37.7,31.1,94,88,73,30.58,30.09,23,5,23,0.11
2013-4-24,63.9,50.9,42.3,51.8,45.2,40.7,95,82,57,30.09,29.77,28,7,28,0.05
2013-4-25,65.6,55.1,45.0,52.1,38.7,25.1,90,58,22,30.24,29.80,24,5,31,0.02
2013-4-26,54.2,48.6,43.4,41.5,35.5,28.9,87,62,39,30.41,30.24,19,4,19,0.00
2013-4-27,57.2,50.1,40.2,42.8,37.2,28.3,93,64,35,30.40,30.28,14,3,14,0.00
2013-4-28,55.7,51.3,43.7,43.8,39.8,33.6,78,65,50,30.33,30.21,18,3,18,0.00
2013-4-29,62.9,54.8,47.1,48.6,38.6,17.1,88,58,20,30.26,30.18,18,3,18,0.00
2013-4-30,62.9,53.5,45.0,43.2,35.1,16.0,82,54,18,30.36,30.23,12,2,12,0.00
2013-5-1,58.0,51.3,40.4,46.3,42.1,34.7,89,72,43,30.47,30.36,13,2,13,0.00
2013-5-2,71.0,54.5,45.3,48.3,42.9,37.8,92,68,33,30.47,30.35,16,2,16,0.00
2013-5-3,55.9,48.5,42.0,43.2,40.9,38.6,89,75,60,30.51,30.35,18,3,18,0.00
2013-5-4,53.7,46.5,40.5,43.5,40.0,37.3,95,78,65,30.35,30.30,17,3,17,0.00
2013-5-5,53.4,46.3,36.7,43.6,40.5,34.9,94,81,62,30.32,30.25,14,3,14,0.00
2013-5-6,51.2,47.3,41.3,49.2,44.5,39.1,95,90,80,30.28,30.15,14,2,14,0.00
2013-5-7,66.5,57.1,46.3,56.0,51.3,44.7,95,82,60,30.16,30.08,14,2,14,0.00
2013-5-8,61.3,56.7,53.5,56.4,54.0,51.5,95,91,82,30.21,30.04,14,3,14,0.20
2013-5-9,62.2,56.6,53.5,59.6,55.1,51.6,97,95,86,30.05,29.87,9,1,9,0.64
2013-5-10,69.8,58.6,54.7,60.0,55.2,53.1,97,89,69,29.93,29.86,14,2,14,0.00
2013-5-11,72.0,63.5,57.7,61.9,58.3,53.6,93,84,68,29.89,29.67,22,4,22,0.01
2013-5-12,72.8,61.5,50.7,60.3,51.0,27.8,95,72,35,29.78,29.53,29,3,29,0.06
2013-5-13,61.1,51.4,42.8,34.2,30.0,25.4,70,45,28,30.00,29.78,25,3,25,0.00
2013-5-14,60.0,51.1,40.9,35.4,30.4,25.2,72,47,28,30.03,29.93,20,3,20,0.00
2013-5-15,62.3,52.9,39.4,51.9,39.9,26.9,87,63,32,30.03,29.65,25,4,26,0.00
2013-5-16,82.2,67.7,51.8,51.4,39.7,30.4,92,45,17,29.78,29.59,33,3,36,0.00
2013-5-17,67.6,58.2,51.4,45.3,42.1,39.1,74,56,37,30.19,29.78,17,3,17,0.00
2013-5-18,69.8,56.5,45.7,51.5,46.1,39.4,89,70,33,30.28,30.19,16,2,16,0.00
2013-5-19,63.7,54.3,47.8,53.9,50.0,45.9,95,86,63,30.33,30.21,16,2,16,0.08
2013-5-20,82.3,64.3,54.4,63.6,58.6,53.0,96,83,51,30.21,29.89,14,2,14,0.13
2013-5-21,65.6,56.5,50.6,60.2,54.2,48.9,95,92,79,30.03,29.87,19,2,19,0.00
2013-5-22,59.3,53.6,49.6,55.7,51.5,48.2,96,93,85,30.05,29.86,19,2,19,0.36
2013-5-23,76.2,61.7,52.8,68.3,58.6,51.5,97,90,72,29.92,29.79,22,3,22,0.04
2013-5-24,67.2,62.1,52.2,64.7,60.1,50.5,96,93,88,29.79,29.63,19,3,19,0.66
2013-5-25,52.7,48.4,42.0,50.9,46.7,38.4,97,94,87,29.78,29.65,24,4,24,0.29
2013-5-26,58.9,48.4,39.7,44.2,39.4,37.3,94,73,49,30.06,29.67,31,6,31,0.07
2013-5-27,72.5,58.5,42.2,45.5,38.2,30.4,88,53,22,30.15,30.04,25,3,25,0.00
2013-5-28,66.3,56.8,45.1,51.4,45.8,36.4,89,69,35,30.23,30.14,12,1,12,0.00
2013-5-29,65.7,59.0,55.3,61.6,56.5,51.0,96,91,80,30.17,29.95,12,1,12,0.89
2013-5-30,89.8,76.4,60.2,68.3,64.2,58.7,96,69,40,30.04,29.95,24,3,24,0.00
2013-5-31,95.8,82.6,67.6,67.7,64.6,60.6,86,58,33,30.05,29.89,18,3,18,0.00
2013-6-1,94.0,82.5,69.7,67.7,64.6,60.6,78,57,34,29.94,29.81,19,2,19,0.00
2013-6-2,86.4,77.9,70.4,69.1,66.1,63.3,83,68,51,29.84,29.69,32,4,32,0.00
2013-6-3,73.9,68.9,63.0,66.6,62.7,47.4,94,81,50,29.82,29.72,20,2,20,0.37
2013-6-4,72.5,63.2,52.7,47.9,44.4,41.5,72,52,35,30.07,29.79,23,3,23,0.00
2013-6-5,72.4,61.1,51.6,52.8,47.4,39.9,82,62,34,30.16,30.06,16,2,16,0.00
2013-6-6,69.0,62.0,55.1,55.1,51.2,47.3,88,68,54,30.17,30.09,16,2,16,0.00
2013-6-7,57.4,55.4,53.7,55.2,53.1,50.6,97,92,83,30.11,29.79,14,2,16,2.27
2013-6-8,79.5,64.0,52.8,64.3,57.4,51.7,96,81,57,29.97,29.58,24,4,24,0.51
2013-6-9,81.7,69.9,57.7,59.5,56.0,51.8,93,64,38,30.13,29.97,18,2,18,0.00
2013-6-10,67.7,61.7,57.2,57.2,55.8,53.8,95,82,65,30.19,30.00,12,2,12,0.49
2013-6-11,62.2,57.3,54.7,57.7,55.2,52.7,96,93,83,30.02,29.55,18,2,18,1.25
2013-6-12,71.3,61.9,55.2,59.2,55.5,53.3,96,81,56,29.78,29.53,23,2,25,0.08
2013-6-13,69.8,58.1,53.0,56.4,53.2,50.3,94,84,52,29.78,29.66,13,1,13,0.40
2013-6-14,75.0,61.1,51.7,57.3,53.4,49.5,97,78,50,29.74,29.62,10,2,15,0.43
2013-6-15,80.8,68.1,57.6,54.5,49.0,37.9,84,55,23,29.91,29.73,18,2,18,0.09
2013-6-16,78.9,68.5,57.5,62.1,53.4,47.6,80,60,35,29.91,29.68,16,2,16,0.03
2013-6-17,87.0,70.2,61.3,63.8,59.8,53.0,94,73,34,29.87,29.74,19,2,19,0.04
2013-6-18,71.9,62.7,57.9,62.4,58.3,55.9,95,86,58,29.92,29.85,14,1,14,0.04
2013-6-19,72.8,63.0,56.2,56.8,51.5,45.1,95,69,39,30.12,29.88,22,2,22,0.03
2013-6-20,73.7,64.5,52.0,59.8,53.9,49.2,91,70,48,30.24,30.12,12,1,12,0.02
2013-6-21,82.7,71.5,60.2,64.0,60.3,53.8,87,69,48,30.22,30.16,11,1,11,0.02
2013-6-22,86.8,75.9,63.4,64.6,60.5,56.6,85,61,40,30.19,30.08,16,2,16,0.01
2013-6-23,92.0,77.8,65.6,72.0,64.6,56.5,78,64,50,30.13,29.94,12,2,18,0.00
2013-6-24,95.7,81.0,70.2,72.0,69.3,66.9,94,71,40,29.98,29.82,20,2,24,0.55
2013-6-25,93.9,80.6,69.3,71.6,68.3,65.5,94,69,43,29.88,29.68,18,3,18,0.03
2013-6-26,85.8,73.0,63.6,69.6,67.1,62.0,95,83,55,29.84,29.68,14,1,14,0.08
2013-6-27,69.5,63.9,60.4,64.3,61.9,59.3,97,93,82,29.85,29.74,10,1,10,0.04
2013-6-28,78.3,69.0,60.2,71.9,66.1,59.0,97,91,76,29.75,29.47,21,4,21,0.21
2013-6-29,81.3,73.5,66.9,71.1,67.9,65.1,96,83,64,29.69,29.49,26,4,26,0.02
2013-6-30,82.8,75.3,69.2,72.6,69.5,66.7,93,83,69,29.83,29.69,19,3,19,0.01
2013-7-1,76.6,72.3,70.8,72.2,70.2,67.5,96,93,84,30.07,29.91,14,1,14,0.01
2013-7-2,80.0,68.7,59.7,73.6,65.9,57.8,95,91,73,30.20,30.07,15,3,15,0.02
2013-7-3,90.2,74.3,59.3,73.8,67.0,57.8,96,80,55,30.19,30.09,16,2,19,0.02
2013-7-4,94.8,84.1,73.6,75.6,72.9,70.7,92,71,48,30.17,30.05,16,2,16,0.01
2013-7-5,96.0,86.1,76.9,75.6,73.2,70.6,85,67,46,30.13,30.00,14,2,14,0.01
2013-7-6,93.0,84.5,77.2,74.1,70.5,63.4,85,65,44,30.04,29.94,19,2,21,0.01
2013-7-7,92.9,80.8,72.3,73.4,67.5,62.3,82,65,42,29.99,29.87,12,2,12,0.00
2013-7-8,84.5,74.5,64.3,74.9,69.0,62.2,94,83,71,30.05,29.88,14,2,14,0.00
2013-7-9,72.3,66.9,64.2,65.9,63.5,62.3,95,89,80,30.09,30.03,9,1,9,0.01
2013-7-10,83.9,74.3,65.7,73.5,69.7,63.1,96,86,68,30.06,29.77,18,2,19,0.00
2013-7-11,82.5,76.4,70.6,74.3,71.6,68.4,93,86,66,29.90,29.75,15,1,16,0.01
2013-7-12,75.5,69.6,66.2,68.4,60.8,57.5,94,74,56,30.18,29.90,23,4,23,0.01
2013-7-13,75.0,68.8,65.2,66.2,64.0,60.8,93,85,73,30.30,30.18,11,1,11,0.00
2013-7-14,89.5,76.9,67.3,73.6,70.4,65.6,96,82,53,30.28,30.18,14,1,14,0.00
2013-7-15,90.0,80.0,72.1,73.4,70.4,66.9,93,74,52,30.18,30.07,12,1,12,0.00
2013-7-16,94.0,79.8,70.8,72.2,68.9,65.4,84,70,47,30.14,30.08,12,1,12,0.00
2013-7-17,87.6,80.3,71.1,74.4,71.2,66.6,90,74,61,30.16,29.95,13,2,13,0.00
2013-7-18,89.8,80.0,74.8,74.7,71.4,68.5,86,76,55,29.99,29.92,13,2,13,0.00
2013-7-19,99.0,87.1,74.1,77.8,73.2,68.1,92,66,38,29.92,29.67,25,2,25,0.00
2013-7-20,94.8,84.8,77.1,77.2,73.5,63.9,88,70,47,29.77,29.61,28,2,28,0.13
2013-7-21,77.1,72.9,69.2,67.0,64.4,60.1,92,75,59,29.98,29.77,13,2,13,0.00
2013-7-22,75.7,70.9,67.2,68.8,66.9,65.5,95,87,74,30.01,29.88,12,2,13,0.00
2013-7-23,79.3,71.5,68.2,75.6,69.9,66.7,97,95,85,29.88,29.51,15,1,15,0.32
2013-7-24,87.7,76.8,66.9,74.6,67.2,53.4,97,75,51,29.93,29.56,15,2,18,0.03
2013-7-25,66.7,61.4,59.6,59.1,55.3,51.0,95,81,63,30.09,29.93,13,2,13,0.00
2013-7-26,70.8,64.8,60.2,66.1,62.7,58.8,96,93,83,30.04,29.89,17,3,17,0.02
2013-7-27,83.2,72.1,61.1,68.4,63.6,58.4,93,76,50,30.03,29.97,16,2,16,0.01
2013-7-28,74.1,68.3,65.0,67.9,65.3,63.3,95,90,80,30.00,29.96,12,1,12,0.01
2013-7-29,76.0,69.7,65.4,70.3,67.0,63.9,96,91,80,30.02,29.94,11,1,11,0.02
2013-7-30,82.0,71.4,62.7,66.4,62.8,56.7,96,76,43,30.07,30.00,13,2,14,0.00
2013-7-31,79.5,70.5,61.7,65.4,61.3,56.5,90,74,47,30.11,30.02,12,1,12,0.01
2013-8-1,78.3,71.8,64.0,67.3,63.5,60.4,92,76,59,30.02,29.86,18,2,18,0.01
2013-8-2,83.8,72.5,64.1,68.5,62.5,55.4,96,73,40,29.87,29.76,19,2,19,0.00
2013-8-3,80.3,71.7,64.7,64.7,62.8,60.5,93,75,52,29.84,29.75,20,2,20,0.01
2013-8-4,81.7,69.8,61.0,62.9,57.5,53.6,81,67,40,29.85,29.74,16,2,16,0.01
2013-8-5,77.7,66.4,56.7,53.9,47.3,37.7,83,54,25,30.02,29.85,21,3,22,0.00
2013-8-6,74.9,65.0,52.9,61.1,52.4,46.0,86,65,41,30.13,30.02,7,1,11,0.01
2013-8-7,74.9,67.8,57.5,62.1,57.9,53.7,93,72,50,30.17,30.09,16,2,16,0.00
2013-8-8,80.3,71.9,65.6,70.2,65.0,55.4,90,79,69,30.12,29.98,14,3,14,0.01
2013-8-9,74.6,72.1,69.2,73.4,70.0,68.0,97,93,88,30.01,29.71,22,3,22,0.00
2013-8-10,85.7,75.2,64.4,71.6,62.1,53.3,96,68,36,29.98,29.76,21,3,21,0.01
2013-8-11,80.0,68.4,56.8,58.8,54.8,51.1,88,64,39,30.06,29.98,16,2,19,0.01
2013-8-12,84.2,71.6,59.7,62.0,58.2,52.1,92,66,35,30.00,29.89,13,1,13,0.00
2013-8-13,74.0,68.1,65.1,67.2,63.7,61.5,93,86,75,29.90,29.66,9,0,9,0.01
2013-8-14,76.3,69.1,61.3,63.2,54.9,50.3,92,63,42,29.93,29.64,25,3,26,0.01
2013-8-15,78.3,67.1,55.7,54.2,51.0,46.0,84,59,34,30.08,29.93,18,3,18,0.00
2013-8-16,82.0,69.2,57.6,57.7,54.0,48.6,83,61,32,30.17,30.08,18,2,18,0.00
2013-8-17,76.0,67.4,58.4,61.0,58.0,54.0,87,73,50,30.26,30.17,11,2,12,0.00
2013-8-18,76.1,68.8,61.8,63.1,60.6,57.5,90,76,64,30.25,30.06,8,1,8,0.00
2013-8-19,83.3,72.1,62.0,62.8,60.0,57.5,88,68,43,30.06,29.92,18,3,18,0.01
2013-8-20,84.3,73.4,64.9,65.5,62.9,59.7,86,71,49,30.06,29.94,12,1,12,0.00
2013-8-21,86.1,75.5,64.0,66.6,64.0,60.3,89,69,49,30.12,29.99,12,1,12,0.00
2013-8-22,89.3,77.6,67.1,70.7,66.0,61.2,88,69,41,30.01,29.79,19,2,19,0.00
2013-8-23,78.3,71.9,62.7,69.0,60.4,53.7,90,68,49,30.10,29.79,18,2,18,0.00
2013-8-24,73.7,64.5,55.1,54.2,47.1,38.6,80,56,31,30.31,30.10,12,2,12,0.00
2013-8-25,76.3,66.9,54.6,59.0,52.5,46.6,87,61,41,30.34,30.15,9,1,9,0.00
2013-8-26,83.4,73.2,66.4,66.4,61.7,55.3,79,68,54,30.16,29.84,18,2,18,0.00
2013-8-27,79.8,72.5,65.9,68.9,66.0,63.5,92,80,64,29.87,29.81,12,1,12,0.00
2013-8-28,73.2,65.6,61.1,65.6,62.7,59.5,96,90,76,29.97,29.84,12,1,12,0.00
2013-8-29,65.8,63.6,62.1,63.9,60.7,57.5,96,90,83,30.06,29.94,16,2,16,0.01
2013-8-30,85.3,72.1,62.2,67.8,62.8,58.0,89,74,51,30.01,29.79,13,1,13,0.00
2013-8-31,80.0,73.8,69.9,72.8,69.8,66.7,95,87,78,29.82,29.76,13,1,13,0.24
2013-9-1,77.3,72.4,69.3,72.9,69.0,66.7,95,89,74,29.87,29.76,13,1,13,0.09
2013-9-2,78.0,71.4,68.1,73.3,69.2,66.7,96,93,81,29.86,29.69,11,1,11,0.01
2013-9-3,82.7,74.4,66.6,71.1,67.9,57.9,96,81,60,29.78,29.66,14,1,14,0.01
2013-9-4,82.4,70.8,59.7,60.4,56.3,53.4,88,63,38,29.89,29.77,18,3,18,0.01
2013-9-5,66.8,63.0,52.4,60.9,55.6,46.4,91,77,64,30.12,29.83,13,1,13,0.00
2013-9-6,71.3,58.6,44.7,50.5,43.4,37.5,89,60,32,30.22,30.06,13,1,13,0.00
2013-9-7,81.7,65.7,52.1,55.8,48.9,45.3,80,57,31,30.06,29.82,15,1,15,0.00
2013-9-8,75.0,65.3,52.9,60.7,51.7,39.7,89,64,38,30.07,29.71,21,3,21,0.00
2013-9-9,71.3,58.5,45.1,50.7,44.4,38.3,88,62,31,30.21,30.06,13,2,13,0.00
2013-9-10,75.7,67.1,58.2,69.0,61.1,50.2,93,81,70,30.13,30.00,17,2,17,0.00
2013-9-11,98.2,82.3,68.0,75.9,70.5,64.9,95,71,38,30.05,29.90,16,1,16,0.00
2013-9-12,85.3,77.5,67.0,73.2,68.9,65.0,94,76,59,29.94,29.65,25,4,25,0.00
2013-9-13,75.8,67.2,58.8,68.4,64.0,54.6,96,90,73,29.73,29.55,10,1,10,0.00
2013-9-14,67.8,61.2,54.7,55.8,53.6,51.1,88,77,62,30.03,29.73,16,2,16,0.00
2013-9-15,73.8,60.6,49.3,55.6,50.0,46.7,94,71,40,30.14,30.02,15,2,15,0.00
2013-9-16,68.3,59.3,48.7,54.4,49.6,39.4,82,71,57,30.22,29.98,16,2,16,0.00
2013-9-17,63.4,51.5,39.6,44.8,39.5,33.4,87,65,42,30.40,30.22,17,2,17,0.00
2013-9-18,76.4,59.6,44.6,52.3,44.1,37.3,88,61,27,30.30,30.11,9,1,14,0.00
2013-9-19,72.0,60.9,50.8,56.5,51.8,46.6,91,73,52,30.11,30.01,9,1,9,0.00
2013-9-20,73.2,60.9,51.2,59.8,55.1,49.2,94,82,59,30.07,29.99,12,1,12,0.00
2013-9-21,74.4,66.3,54.4,63.7,61.1,52.4,95,84,60,30.01,29.72,14,4,23,0.00
2013-9-22,72.5,65.8,53.7,65.3,56.1,44.4,91,72,48,29.79,29.59,24,4,24,0.00
2013-9-23,64.4,53.9,46.5,44.6,42.1,39.5,80,65,47,29.97,29.79,20,3,20,0.00
2013-9-24,66.3,53.0,42.1,46.8,42.2,38.6,88,69,42,29.96,29.79,23,3,23,0.00
2013-9-25,65.3,54.8,45.8,49.8,46.5,42.8,90,75,51,29.96,29.85,11,1,11,0.00
2013-9-26,62.0,55.8,52.3,49.7,47.9,45.8,82,75,61,30.03,29.96,14,1,14,0.00
2013-9-27,65.8,59.2,53.3,52.1,50.3,47.8,86,73,53,30.23,30.10,5,2,17,0.00
2013-9-28,70.0,59.8,48.8,57.3,54.0,47.2,95,82,53,30.30,30.23,13,1,13,0.00
2013-9-29,62.9,54.3,47.4,57.0,50.1,46.0,97,86,66,30.25,30.10,11,1,11,0.00
2013-9-30,64.8,53.3,44.9,55.0,49.6,43.6,96,88,63,30.11,29.95,10,1,10,0.00
2013-10-1,75.6,60.4,48.0,56.2,51.6,46.3,96,75,46,29.95,29.83,14,1,14,0.00
2013-10-2,81.0,68.3,56.3,61.1,57.3,52.2,89,70,48,29.91,29.78,22,3,22,0.00
2013-10-3,79.6,67.2,56.6,57.7,52.2,42.4,86,62,28,30.05,29.91,14,2,14,0.00